sensor_id;sensor_type;location;lat;lon;timestamp;P1;durP1;ratioP1;P2;durP2;ratioP2
29092;SDS011;16167;48.768;14.984;2022-07-19T00:01:53;6.45;;;3.00;;
29092;SDS011;16167;48.768;14.984;2022-07-19T00:04:23;6.28;;;2.63;;
29092;SDS011;16167;48.768;14.984;2022-07-19T00:06:51;5.10;;;2.92;;
29092;SDS011;16167;48.768;14.984;2022-07-19T00:09:21;4.25;;;2.97;;
29092;SDS011;16167;48.768;14.984;2022-07-19T00:11:49;3.15;;;2.85;;
29092;SDS011;16167;48.768;14.984;2022-07-19T00:14:18;2.60;;;2.40;;
29092;SDS011;16167;48.768;14.984;2022-07-19T00:16:46;5.03;;;2.67;;
29092;SDS011;16167;48.768;14.984;2022-07-19T00:19:15;6.00;;;2.60;;
29092;SDS011;16167;48.768;14.984;2022-07-19T00:21:45;3.10;;;2.65;;
29092;SDS011;16167;48.768;14.984;2022-07-19T00:26:41;3.72;;;2.65;;
29092;SDS011;16167;48.768;14.984;2022-07-19T00:29:09;3.13;;;2.65;;
29092;SDS011;16167;48.768;14.984;2022-07-19T00:31:37;5.13;;;2.70;;
29092;SDS011;16167;48.768;14.984;2022-07-19T00:34:05;3.47;;;2.33;;
29092;SDS011;16167;48.768;14.984;2022-07-19T00:36:33;3.78;;;2.72;;
29092;SDS011;16167;48.768;14.984;2022-07-19T00:39:03;3.53;;;2.60;;
29092;SDS011;16167;48.768;14.984;2022-07-19T00:41:31;6.28;;;2.80;;
29092;SDS011;16167;48.768;14.984;2022-07-19T00:44:00;3.33;;;2.50;;
29092;SDS011;16167;48.768;14.984;2022-07-19T00:46:28;3.33;;;2.78;;
29092;SDS011;16167;48.768;14.984;2022-07-19T00:48:56;4.28;;;2.95;;
29092;SDS011;16167;48.768;14.984;2022-07-19T00:51:24;3.75;;;2.92;;
29092;SDS011;16167;48.768;14.984;2022-07-19T00:53:53;4.60;;;2.78;;
29092;SDS011;16167;48.768;14.984;2022-07-19T00:56:24;2.80;;;2.30;;
29092;SDS011;16167;48.768;14.984;2022-07-19T00:58:53;3.97;;;2.90;;
29092;SDS011;16167;48.768;14.984;2022-07-19T01:01:22;2.97;;;2.70;;
29092;SDS011;16167;48.768;14.984;2022-07-19T01:03:50;3.20;;;2.80;;
29092;SDS011;16167;48.768;14.984;2022-07-19T01:06:19;5.47;;;2.78;;
29092;SDS011;16167;48.768;14.984;2022-07-19T01:08:50;2.78;;;2.40;;
29092;SDS011;16167;48.768;14.984;2022-07-19T01:11:18;4.35;;;2.60;;
29092;SDS011;16167;48.768;14.984;2022-07-19T01:13:48;4.90;;;2.53;;
29092;SDS011;16167;48.768;14.984;2022-07-19T01:16:17;3.05;;;2.30;;
29092;SDS011;16167;48.768;14.984;2022-07-19T01:18:45;2.90;;;2.63;;
29092;SDS011;16167;48.768;14.984;2022-07-19T01:21:18;3.33;;;2.70;;
29092;SDS011;16167;48.768;14.984;2022-07-19T01:23:47;3.10;;;2.80;;
29092;SDS011;16167;48.768;14.984;2022-07-19T01:26:15;2.88;;;2.65;;
29092;SDS011;16167;48.768;14.984;2022-07-19T01:28:44;4.43;;;2.53;;
29092;SDS011;16167;48.768;14.984;2022-07-19T01:31:12;29.20;;;3.40;;
29092;SDS011;16167;48.768;14.984;2022-07-19T01:33:41;4.35;;;3.15;;
29092;SDS011;16167;48.768;14.984;2022-07-19T01:38:39;4.88;;;2.90;;
29092;SDS011;16167;48.768;14.984;2022-07-19T01:41:07;2.72;;;2.53;;
29092;SDS011;16167;48.768;14.984;2022-07-19T01:43:35;10.05;;;3.47;;
29092;SDS011;16167;48.768;14.984;2022-07-19T01:46:04;4.50;;;3.50;;
29092;SDS011;16167;48.768;14.984;2022-07-19T01:48:33;4.10;;;2.80;;
29092;SDS011;16167;48.768;14.984;2022-07-19T01:51:01;3.47;;;2.60;;
29092;SDS011;16167;48.768;14.984;2022-07-19T01:53:30;4.03;;;2.72;;
29092;SDS011;16167;48.768;14.984;2022-07-19T01:55:59;3.70;;;2.80;;
29092;SDS011;16167;48.768;14.984;2022-07-19T01:58:31;3.17;;;2.88;;
29092;SDS011;16167;48.768;14.984;2022-07-19T02:00:59;5.80;;;3.10;;
29092;SDS011;16167;48.768;14.984;2022-07-19T02:03:27;3.50;;;2.78;;
29092;SDS011;16167;48.768;14.984;2022-07-19T02:05:55;5.45;;;3.33;;
29092;SDS011;16167;48.768;14.984;2022-07-19T02:08:24;3.17;;;2.88;;
29092;SDS011;16167;48.768;14.984;2022-07-19T02:10:52;6.63;;;3.03;;
29092;SDS011;16167;48.768;14.984;2022-07-19T02:13:21;2.97;;;2.63;;
29092;SDS011;16167;48.768;14.984;2022-07-19T02:18:17;3.90;;;3.25;;
29092;SDS011;16167;48.768;14.984;2022-07-19T02:20:46;3.65;;;3.00;;
29092;SDS011;16167;48.768;14.984;2022-07-19T02:23:14;4.80;;;2.90;;
29092;SDS011;16167;48.768;14.984;2022-07-19T02:25:42;3.42;;;3.08;;
29092;SDS011;16167;48.768;14.984;2022-07-19T02:28:10;4.32;;;3.35;;
29092;SDS011;16167;48.768;14.984;2022-07-19T02:30:39;3.75;;;2.95;;
29092;SDS011;16167;48.768;14.984;2022-07-19T02:33:07;3.92;;;3.53;;
29092;SDS011;16167;48.768;14.984;2022-07-19T02:35:35;7.63;;;3.40;;
29092;SDS011;16167;48.768;14.984;2022-07-19T02:38:03;5.32;;;3.45;;
29092;SDS011;16167;48.768;14.984;2022-07-19T02:40:32;6.63;;;3.53;;
29092;SDS011;16167;48.768;14.984;2022-07-19T02:43:00;4.60;;;3.53;;
29092;SDS011;16167;48.768;14.984;2022-07-19T02:45:28;5.40;;;3.40;;
29092;SDS011;16167;48.768;14.984;2022-07-19T02:47:58;4.45;;;3.55;;
29092;SDS011;16167;48.768;14.984;2022-07-19T02:50:27;4.32;;;3.53;;
29092;SDS011;16167;48.768;14.984;2022-07-19T02:52:55;4.60;;;3.45;;
29092;SDS011;16167;48.768;14.984;2022-07-19T02:55:23;4.97;;;3.40;;
29092;SDS011;16167;48.768;14.984;2022-07-19T02:57:51;4.28;;;3.13;;
29092;SDS011;16167;48.768;14.984;2022-07-19T03:00:19;4.35;;;3.42;;
29092;SDS011;16167;48.768;14.984;2022-07-19T03:02:47;4.32;;;3.30;;
29092;SDS011;16167;48.768;14.984;2022-07-19T03:05:16;6.85;;;3.20;;
29092;SDS011;16167;48.768;14.984;2022-07-19T03:07:44;3.90;;;3.50;;
29092;SDS011;16167;48.768;14.984;2022-07-19T03:10:13;3.75;;;3.17;;
29092;SDS011;16167;48.768;14.984;2022-07-19T03:12:41;3.05;;;2.75;;
29092;SDS011;16167;48.768;14.984;2022-07-19T03:15:09;4.20;;;2.83;;
29092;SDS011;16167;48.768;14.984;2022-07-19T03:17:37;5.25;;;3.08;;
29092;SDS011;16167;48.768;14.984;2022-07-19T03:20:06;4.03;;;3.42;;
29092;SDS011;16167;48.768;14.984;2022-07-19T03:22:36;4.05;;;3.65;;
29092;SDS011;16167;48.768;14.984;2022-07-19T03:25:05;3.50;;;2.83;;
29092;SDS011;16167;48.768;14.984;2022-07-19T03:27:33;5.68;;;3.67;;
29092;SDS011;16167;48.768;14.984;2022-07-19T03:30:02;5.22;;;3.45;;
29092;SDS011;16167;48.768;14.984;2022-07-19T03:32:31;4.97;;;3.72;;
29092;SDS011;16167;48.768;14.984;2022-07-19T03:34:59;5.05;;;3.60;;
29092;SDS011;16167;48.768;14.984;2022-07-19T03:37:27;5.18;;;3.50;;
29092;SDS011;16167;48.768;14.984;2022-07-19T03:39:56;4.93;;;3.65;;
29092;SDS011;16167;48.768;14.984;2022-07-19T03:42:24;4.53;;;3.83;;
29092;SDS011;16167;48.768;14.984;2022-07-19T03:44:52;3.60;;;3.30;;
29092;SDS011;16167;48.768;14.984;2022-07-19T03:47:20;4.45;;;3.45;;
29092;SDS011;16167;48.768;14.984;2022-07-19T03:49:48;6.80;;;3.70;;
29092;SDS011;16167;48.768;14.984;2022-07-19T03:52:17;3.80;;;3.45;;
29092;SDS011;16167;48.768;14.984;2022-07-19T03:54:45;7.75;;;4.13;;
29092;SDS011;16167;48.768;14.984;2022-07-19T03:57:14;4.03;;;3.40;;
29092;SDS011;16167;48.768;14.984;2022-07-19T03:59:42;5.95;;;3.75;;
29092;SDS011;16167;48.768;14.984;2022-07-19T04:02:10;4.72;;;3.30;;
29092;SDS011;16167;48.768;14.984;2022-07-19T04:04:39;7.45;;;3.38;;
29092;SDS011;16167;48.768;14.984;2022-07-19T04:07:07;3.88;;;3.58;;
29092;SDS011;16167;48.768;14.984;2022-07-19T04:09:35;6.25;;;4.30;;
29092;SDS011;16167;48.768;14.984;2022-07-19T04:12:03;4.22;;;3.58;;
29092;SDS011;16167;48.768;14.984;2022-07-19T04:14:32;4.45;;;3.38;;
29092;SDS011;16167;48.768;14.984;2022-07-19T04:17:01;7.22;;;3.90;;
29092;SDS011;16167;48.768;14.984;2022-07-19T04:21:58;4.25;;;3.85;;
29092;SDS011;16167;48.768;14.984;2022-07-19T04:24:26;5.28;;;4.10;;
29092;SDS011;16167;48.768;14.984;2022-07-19T04:26:54;6.72;;;4.10;;
29092;SDS011;16167;48.768;14.984;2022-07-19T04:29:22;8.38;;;4.18;;
29092;SDS011;16167;48.768;14.984;2022-07-19T04:31:52;3.80;;;3.40;;
29092;SDS011;16167;48.768;14.984;2022-07-19T04:36:48;4.07;;;3.30;;
29092;SDS011;16167;48.768;14.984;2022-07-19T04:39:16;6.00;;;4.03;;
29092;SDS011;16167;48.768;14.984;2022-07-19T04:41:44;7.88;;;3.50;;
29092;SDS011;16167;48.768;14.984;2022-07-19T04:44:12;6.25;;;3.78;;
29092;SDS011;16167;48.768;14.984;2022-07-19T04:46:40;3.53;;;3.22;;
29092;SDS011;16167;48.768;14.984;2022-07-19T04:49:14;4.03;;;3.45;;
29092;SDS011;16167;48.768;14.984;2022-07-19T04:51:42;4.05;;;3.72;;
29092;SDS011;16167;48.768;14.984;2022-07-19T04:54:10;3.95;;;3.20;;
29092;SDS011;16167;48.768;14.984;2022-07-19T04:56:38;6.68;;;3.60;;
29092;SDS011;16167;48.768;14.984;2022-07-19T04:59:06;7.50;;;3.85;;
29092;SDS011;16167;48.768;14.984;2022-07-19T05:01:34;6.97;;;3.05;;
29092;SDS011;16167;48.768;14.984;2022-07-19T05:04:04;4.30;;;3.00;;
29092;SDS011;16167;48.768;14.984;2022-07-19T05:06:33;5.07;;;3.20;;
29092;SDS011;16167;48.768;14.984;2022-07-19T05:09:02;6.65;;;3.45;;
29092;SDS011;16167;48.768;14.984;2022-07-19T05:11:30;3.80;;;3.40;;
29092;SDS011;16167;48.768;14.984;2022-07-19T05:13:58;3.37;;;2.97;;
29092;SDS011;16167;48.768;14.984;2022-07-19T05:16:26;4.10;;;3.10;;
29092;SDS011;16167;48.768;14.984;2022-07-19T05:18:55;6.88;;;3.80;;
29092;SDS011;16167;48.768;14.984;2022-07-19T05:21:23;3.45;;;2.97;;
29092;SDS011;16167;48.768;14.984;2022-07-19T05:23:52;4.93;;;2.92;;
29092;SDS011;16167;48.768;14.984;2022-07-19T05:28:48;3.70;;;3.08;;
29092;SDS011;16167;48.768;14.984;2022-07-19T05:31:16;7.63;;;3.30;;
29092;SDS011;16167;48.768;14.984;2022-07-19T05:33:45;5.93;;;2.80;;
29092;SDS011;16167;48.768;14.984;2022-07-19T05:36:13;3.38;;;3.08;;
29092;SDS011;16167;48.768;14.984;2022-07-19T05:38:41;4.20;;;3.00;;
29092;SDS011;16167;48.768;14.984;2022-07-19T05:41:10;5.63;;;2.72;;
29092;SDS011;16167;48.768;14.984;2022-07-19T05:46:07;3.03;;;2.72;;
29092;SDS011;16167;48.768;14.984;2022-07-19T05:48:35;5.23;;;2.90;;
29092;SDS011;16167;48.768;14.984;2022-07-19T05:51:03;4.13;;;2.95;;
29092;SDS011;16167;48.768;14.984;2022-07-19T05:53:32;3.28;;;2.67;;
29092;SDS011;16167;48.768;14.984;2022-07-19T05:56:02;5.05;;;2.70;;
29092;SDS011;16167;48.768;14.984;2022-07-19T05:58:31;5.78;;;3.05;;
29092;SDS011;16167;48.768;14.984;2022-07-19T06:01:00;13.48;;;3.88;;
29092;SDS011;16167;48.768;14.984;2022-07-19T06:03:49;8.45;;;3.50;;
29092;SDS011;16167;48.768;14.984;2022-07-19T06:06:24;4.47;;;2.38;;
29092;SDS011;16167;48.768;14.984;2022-07-19T06:08:53;4.25;;;2.63;;
29092;SDS011;16167;48.768;14.984;2022-07-19T06:11:22;3.72;;;2.70;;
29092;SDS011;16167;48.768;14.984;2022-07-19T06:13:52;4.30;;;2.60;;
29092;SDS011;16167;48.768;14.984;2022-07-19T06:16:21;3.65;;;2.53;;
29092;SDS011;16167;48.768;14.984;2022-07-19T06:18:49;4.55;;;2.50;;
29092;SDS011;16167;48.768;14.984;2022-07-19T06:21:18;6.00;;;2.75;;
29092;SDS011;16167;48.768;14.984;2022-07-19T06:23:47;4.85;;;2.63;;
29092;SDS011;16167;48.768;14.984;2022-07-19T06:26:16;3.00;;;2.70;;
29092;SDS011;16167;48.768;14.984;2022-07-19T06:28:44;5.57;;;2.60;;
29092;SDS011;16167;48.768;14.984;2022-07-19T06:31:14;7.38;;;2.75;;
29092;SDS011;16167;48.768;14.984;2022-07-19T06:33:44;6.80;;;2.60;;
29092;SDS011;16167;48.768;14.984;2022-07-19T06:36:14;4.82;;;2.65;;
29092;SDS011;16167;48.768;14.984;2022-07-19T06:38:42;6.50;;;2.58;;
29092;SDS011;16167;48.768;14.984;2022-07-19T06:41:10;2.97;;;2.50;;
29092;SDS011;16167;48.768;14.984;2022-07-19T06:43:39;6.35;;;2.65;;
29092;SDS011;16167;48.768;14.984;2022-07-19T06:46:07;7.37;;;2.43;;
29092;SDS011;16167;48.768;14.984;2022-07-19T06:48:37;5.10;;;2.75;;
29092;SDS011;16167;48.768;14.984;2022-07-19T06:51:06;3.30;;;2.65;;
29092;SDS011;16167;48.768;14.984;2022-07-19T06:53:35;3.75;;;2.25;;
29092;SDS011;16167;48.768;14.984;2022-07-19T06:56:03;3.67;;;2.20;;
29092;SDS011;16167;48.768;14.984;2022-07-19T06:58:32;3.03;;;2.40;;
29092;SDS011;16167;48.768;14.984;2022-07-19T07:01:07;4.82;;;2.58;;
29092;SDS011;16167;48.768;14.984;2022-07-19T07:03:37;2.90;;;2.40;;
29092;SDS011;16167;48.768;14.984;2022-07-19T07:06:05;3.88;;;2.30;;
29092;SDS011;16167;48.768;14.984;2022-07-19T07:08:34;2.65;;;2.20;;
29092;SDS011;16167;48.768;14.984;2022-07-19T07:11:02;4.85;;;2.15;;
29092;SDS011;16167;48.768;14.984;2022-07-19T07:13:30;4.20;;;2.13;;
29092;SDS011;16167;48.768;14.984;2022-07-19T07:15:58;3.28;;;2.00;;
29092;SDS011;16167;48.768;14.984;2022-07-19T07:18:26;3.90;;;2.30;;
29092;SDS011;16167;48.768;14.984;2022-07-19T07:20:56;4.20;;;2.40;;
29092;SDS011;16167;48.768;14.984;2022-07-19T07:23:24;4.05;;;2.05;;
29092;SDS011;16167;48.768;14.984;2022-07-19T07:25:52;3.47;;;2.17;;
29092;SDS011;16167;48.768;14.984;2022-07-19T07:28:21;3.13;;;2.80;;
29092;SDS011;16167;48.768;14.984;2022-07-19T07:30:51;3.30;;;2.17;;
29092;SDS011;16167;48.768;14.984;2022-07-19T07:33:20;5.20;;;2.40;;
29092;SDS011;16167;48.768;14.984;2022-07-19T07:35:48;5.05;;;2.60;;
29092;SDS011;16167;48.768;14.984;2022-07-19T07:38:18;4.47;;;2.10;;
29092;SDS011;16167;48.768;14.984;2022-07-19T07:40:46;3.88;;;2.60;;
29092;SDS011;16167;48.768;14.984;2022-07-19T07:43:14;4.32;;;2.25;;
29092;SDS011;16167;48.768;14.984;2022-07-19T07:45:42;2.20;;;2.00;;
29092;SDS011;16167;48.768;14.984;2022-07-19T07:48:10;5.15;;;1.90;;
29092;SDS011;16167;48.768;14.984;2022-07-19T07:50:38;2.42;;;1.95;;
29092;SDS011;16167;48.768;14.984;2022-07-19T07:53:06;5.63;;;1.95;;
29092;SDS011;16167;48.768;14.984;2022-07-19T07:55:36;4.00;;;2.47;;
29092;SDS011;16167;48.768;14.984;2022-07-19T07:58:06;3.85;;;2.08;;
29092;SDS011;16167;48.768;14.984;2022-07-19T08:00:35;2.13;;;1.70;;
29092;SDS011;16167;48.768;14.984;2022-07-19T08:03:03;1.80;;;1.65;;
29092;SDS011;16167;48.768;14.984;2022-07-19T08:05:32;2.72;;;1.58;;
29092;SDS011;16167;48.768;14.984;2022-07-19T08:08:01;1.92;;;1.52;;
29092;SDS011;16167;48.768;14.984;2022-07-19T08:10:30;2.97;;;1.70;;
29092;SDS011;16167;48.768;14.984;2022-07-19T08:13:03;3.88;;;1.75;;
29092;SDS011;16167;48.768;14.984;2022-07-19T08:15:34;2.92;;;1.90;;
29092;SDS011;16167;48.768;14.984;2022-07-19T08:18:02;2.65;;;1.60;;
29092;SDS011;16167;48.768;14.984;2022-07-19T08:20:31;6.55;;;1.80;;
29092;SDS011;16167;48.768;14.984;2022-07-19T08:22:59;2.25;;;1.38;;
29092;SDS011;16167;48.768;14.984;2022-07-19T08:25:27;5.57;;;1.83;;
29092;SDS011;16167;48.768;14.984;2022-07-19T08:27:55;3.43;;;1.40;;
29092;SDS011;16167;48.768;14.984;2022-07-19T08:30:24;2.47;;;1.63;;
29092;SDS011;16167;48.768;14.984;2022-07-19T08:33:13;4.88;;;1.67;;
29092;SDS011;16167;48.768;14.984;2022-07-19T08:35:41;4.07;;;1.63;;
29092;SDS011;16167;48.768;14.984;2022-07-19T08:38:09;3.97;;;1.30;;
29092;SDS011;16167;48.768;14.984;2022-07-19T08:40:37;3.13;;;1.30;;
29092;SDS011;16167;48.768;14.984;2022-07-19T08:43:09;1.88;;;1.25;;
29092;SDS011;16167;48.768;14.984;2022-07-19T08:45:39;2.63;;;1.35;;
29092;SDS011;16167;48.768;14.984;2022-07-19T08:48:08;4.75;;;1.23;;
29092;SDS011;16167;48.768;14.984;2022-07-19T08:50:36;1.70;;;1.20;;
29092;SDS011;16167;48.768;14.984;2022-07-19T08:53:06;4.45;;;1.20;;
29092;SDS011;16167;48.768;14.984;2022-07-19T08:55:35;1.58;;;1.48;;
29092;SDS011;16167;48.768;14.984;2022-07-19T08:58:03;1.50;;;1.23;;
29092;SDS011;16167;48.768;14.984;2022-07-19T09:00:31;2.20;;;1.08;;
29092;SDS011;16167;48.768;14.984;2022-07-19T09:03:02;2.78;;;1.13;;
29092;SDS011;16167;48.768;14.984;2022-07-19T09:05:33;3.00;;;1.23;;
29092;SDS011;16167;48.768;14.984;2022-07-19T09:08:04;1.35;;;1.25;;
29092;SDS011;16167;48.768;14.984;2022-07-19T09:10:35;1.27;;;1.10;;
29092;SDS011;16167;48.768;14.984;2022-07-19T09:13:06;3.35;;;1.30;;
29092;SDS011;16167;48.768;14.984;2022-07-19T09:15:40;1.30;;;1.20;;
29092;SDS011;16167;48.768;14.984;2022-07-19T09:18:12;1.17;;;1.00;;
29092;SDS011;16167;48.768;14.984;2022-07-19T09:20:42;3.30;;;1.38;;
29092;SDS011;16167;48.768;14.984;2022-07-19T09:23:11;2.55;;;1.20;;
29092;SDS011;16167;48.768;14.984;2022-07-19T09:25:40;2.40;;;1.27;;
29092;SDS011;16167;48.768;14.984;2022-07-19T09:28:09;1.90;;;1.30;;
29092;SDS011;16167;48.768;14.984;2022-07-19T09:30:38;2.42;;;1.30;;
29092;SDS011;16167;48.768;14.984;2022-07-19T09:33:14;1.67;;;1.27;;
29092;SDS011;16167;48.768;14.984;2022-07-19T09:35:44;4.72;;;1.15;;
29092;SDS011;16167;48.768;14.984;2022-07-19T09:38:21;2.05;;;1.25;;
29092;SDS011;16167;48.768;14.984;2022-07-19T09:40:51;2.15;;;1.23;;
29092;SDS011;16167;48.768;14.984;2022-07-19T09:43:22;2.75;;;1.30;;
29092;SDS011;16167;48.768;14.984;2022-07-19T09:46:26;1.73;;;1.20;;
29092;SDS011;16167;48.768;14.984;2022-07-19T09:49:02;2.92;;;1.35;;
29092;SDS011;16167;48.768;14.984;2022-07-19T09:51:32;2.15;;;1.00;;
29092;SDS011;16167;48.768;14.984;2022-07-19T09:54:01;2.78;;;1.75;;
29092;SDS011;16167;48.768;14.984;2022-07-19T09:56:30;5.03;;;2.30;;
29092;SDS011;16167;48.768;14.984;2022-07-19T09:58:59;2.17;;;1.27;;
29092;SDS011;16167;48.768;14.984;2022-07-19T10:01:28;1.60;;;1.23;;
29092;SDS011;16167;48.768;14.984;2022-07-19T10:03:58;2.95;;;1.17;;
29092;SDS011;16167;48.768;14.984;2022-07-19T10:06:35;2.92;;;1.23;;
29092;SDS011;16167;48.768;14.984;2022-07-19T10:09:05;3.97;;;1.40;;
29092;SDS011;16167;48.768;14.984;2022-07-19T10:11:34;3.92;;;1.33;;
29092;SDS011;16167;48.768;14.984;2022-07-19T10:14:03;1.80;;;1.30;;
29092;SDS011;16167;48.768;14.984;2022-07-19T10:19:12;1.25;;;1.15;;
29092;SDS011;16167;48.768;14.984;2022-07-19T10:21:45;3.40;;;1.35;;
29092;SDS011;16167;48.768;14.984;2022-07-19T10:24:14;1.55;;;1.25;;
29092;SDS011;16167;48.768;14.984;2022-07-19T10:26:42;4.47;;;1.48;;
29092;SDS011;16167;48.768;14.984;2022-07-19T10:29:11;3.50;;;1.50;;
29092;SDS011;16167;48.768;14.984;2022-07-19T10:31:43;1.42;;;1.33;;
29092;SDS011;16167;48.768;14.984;2022-07-19T10:34:30;2.45;;;1.50;;
29092;SDS011;16167;48.768;14.984;2022-07-19T10:36:58;1.77;;;1.35;;
29092;SDS011;16167;48.768;14.984;2022-07-19T10:39:27;4.15;;;1.75;;
29092;SDS011;16167;48.768;14.984;2022-07-19T10:42:11;2.15;;;1.35;;
29092;SDS011;16167;48.768;14.984;2022-07-19T10:50:55;2.08;;;1.65;;
29092;SDS011;16167;48.768;14.984;2022-07-19T10:56:31;2.55;;;2.00;;
29092;SDS011;16167;48.768;14.984;2022-07-19T10:59:13;2.85;;;1.90;;
29092;SDS011;16167;48.768;14.984;2022-07-19T11:01:53;1.55;;;1.40;;
29092;SDS011;16167;48.768;14.984;2022-07-19T11:04:23;3.53;;;1.70;;
29092;SDS011;16167;48.768;14.984;2022-07-19T11:07:08;4.50;;;1.70;;
29092;SDS011;16167;48.768;14.984;2022-07-19T11:09:48;2.15;;;1.83;;
29092;SDS011;16167;48.768;14.984;2022-07-19T11:12:19;1.92;;;1.75;;
29092;SDS011;16167;48.768;14.984;2022-07-19T11:15:03;4.28;;;2.30;;
29092;SDS011;16167;48.768;14.984;2022-07-19T11:17:50;3.17;;;1.65;;
29092;SDS011;16167;48.768;14.984;2022-07-19T11:22:50;4.45;;;1.98;;
29092;SDS011;16167;48.768;14.984;2022-07-19T11:25:23;5.40;;;2.25;;
29092;SDS011;16167;48.768;14.984;2022-07-19T11:27:53;4.35;;;2.00;;
29092;SDS011;16167;48.768;14.984;2022-07-19T11:32:50;4.57;;;2.70;;
29092;SDS011;16167;48.768;14.984;2022-07-19T11:35:20;2.65;;;2.42;;
29092;SDS011;16167;48.768;14.984;2022-07-19T11:37:48;2.88;;;2.35;;
29092;SDS011;16167;48.768;14.984;2022-07-19T11:40:22;2.75;;;2.25;;
29092;SDS011;16167;48.768;14.984;2022-07-19T11:42:51;4.80;;;2.15;;
29092;SDS011;16167;48.768;14.984;2022-07-19T11:45:41;8.93;;;2.22;;
29092;SDS011;16167;48.768;14.984;2022-07-19T11:48:11;3.58;;;2.00;;
29092;SDS011;16167;48.768;14.984;2022-07-19T11:53:25;2.10;;;1.75;;
29092;SDS011;16167;48.768;14.984;2022-07-19T11:55:54;3.30;;;2.33;;
29092;SDS011;16167;48.768;14.984;2022-07-19T11:58:22;4.57;;;2.17;;
29092;SDS011;16167;48.768;14.984;2022-07-19T12:00:59;4.25;;;2.10;;
29092;SDS011;16167;48.768;14.984;2022-07-19T12:08:34;2.55;;;2.30;;
29092;SDS011;16167;48.768;14.984;2022-07-19T12:11:17;4.05;;;2.28;;
29092;SDS011;16167;48.768;14.984;2022-07-19T12:13:47;2.67;;;1.83;;
29092;SDS011;16167;48.768;14.984;2022-07-19T12:16:17;2.90;;;2.38;;
29092;SDS011;16167;48.768;14.984;2022-07-19T12:18:47;3.50;;;2.38;;
29092;SDS011;16167;48.768;14.984;2022-07-19T12:21:21;5.38;;;2.15;;
29092;SDS011;16167;48.768;14.984;2022-07-19T12:24:15;3.92;;;2.10;;
29092;SDS011;16167;48.768;14.984;2022-07-19T12:26:58;3.95;;;2.38;;
29092;SDS011;16167;48.768;14.984;2022-07-19T12:29:29;3.17;;;2.10;;
29092;SDS011;16167;48.768;14.984;2022-07-19T12:31:59;2.22;;;1.95;;
29092;SDS011;16167;48.768;14.984;2022-07-19T12:34:29;3.92;;;2.28;;
29092;SDS011;16167;48.768;14.984;2022-07-19T12:37:21;2.90;;;2.13;;
29092;SDS011;16167;48.768;14.984;2022-07-19T12:39:59;2.40;;;2.20;;
29092;SDS011;16167;48.768;14.984;2022-07-19T12:42:36;3.28;;;2.50;;
29092;SDS011;16167;48.768;14.984;2022-07-19T12:45:05;2.47;;;1.80;;
29092;SDS011;16167;48.768;14.984;2022-07-19T12:47:34;3.10;;;1.88;;
29092;SDS011;16167;48.768;14.984;2022-07-19T12:50:04;6.03;;;2.45;;
29092;SDS011;16167;48.768;14.984;2022-07-19T12:52:38;4.10;;;2.10;;
29092;SDS011;16167;48.768;14.984;2022-07-19T12:55:08;4.40;;;2.20;;
29092;SDS011;16167;48.768;14.984;2022-07-19T12:57:44;2.03;;;1.80;;
29092;SDS011;16167;48.768;14.984;2022-07-19T13:00:13;3.15;;;1.85;;
29092;SDS011;16167;48.768;14.984;2022-07-19T13:02:42;4.60;;;1.88;;
29092;SDS011;16167;48.768;14.984;2022-07-19T13:05:11;2.03;;;1.83;;
29092;SDS011;16167;48.768;14.984;2022-07-19T13:07:39;4.30;;;2.40;;
29092;SDS011;16167;48.768;14.984;2022-07-19T13:10:09;2.40;;;2.20;;
29092;SDS011;16167;48.768;14.984;2022-07-19T13:12:38;3.40;;;2.10;;
29092;SDS011;16167;48.768;14.984;2022-07-19T13:15:08;4.43;;;2.30;;
29092;SDS011;16167;48.768;14.984;2022-07-19T13:17:39;3.28;;;1.80;;
29092;SDS011;16167;48.768;14.984;2022-07-19T13:20:08;1.92;;;1.83;;
29092;SDS011;16167;48.768;14.984;2022-07-19T13:22:37;4.03;;;2.00;;
29092;SDS011;16167;48.768;14.984;2022-07-19T13:25:07;4.07;;;1.90;;
29092;SDS011;16167;48.768;14.984;2022-07-19T13:27:57;2.42;;;1.67;;
29092;SDS011;16167;48.768;14.984;2022-07-19T13:30:25;2.65;;;1.85;;
29092;SDS011;16167;48.768;14.984;2022-07-19T13:35:22;3.05;;;1.38;;
29092;SDS011;16167;48.768;14.984;2022-07-19T13:40:20;4.35;;;2.17;;
29092;SDS011;16167;48.768;14.984;2022-07-19T13:42:48;9.38;;;2.17;;
29092;SDS011;16167;48.768;14.984;2022-07-19T13:45:16;3.13;;;1.70;;
29092;SDS011;16167;48.768;14.984;2022-07-19T13:47:44;2.45;;;1.55;;
29092;SDS011;16167;48.768;14.984;2022-07-19T13:50:12;2.72;;;1.88;;
29092;SDS011;16167;48.768;14.984;2022-07-19T13:52:40;3.78;;;2.10;;
29092;SDS011;16167;48.768;14.984;2022-07-19T13:55:08;3.45;;;1.92;;
29092;SDS011;16167;48.768;14.984;2022-07-19T13:57:38;2.90;;;1.67;;
29092;SDS011;16167;48.768;14.984;2022-07-19T14:00:06;5.78;;;2.03;;
29092;SDS011;16167;48.768;14.984;2022-07-19T14:02:36;2.88;;;2.00;;
29092;SDS011;16167;48.768;14.984;2022-07-19T14:05:05;4.57;;;2.10;;
29092;SDS011;16167;48.768;14.984;2022-07-19T14:07:35;4.50;;;2.17;;
29092;SDS011;16167;48.768;14.984;2022-07-19T14:10:03;4.25;;;2.08;;
29092;SDS011;16167;48.768;14.984;2022-07-19T14:12:32;2.33;;;2.03;;
29092;SDS011;16167;48.768;14.984;2022-07-19T14:15:02;4.28;;;2.17;;
29092;SDS011;16167;48.768;14.984;2022-07-19T14:17:31;2.60;;;2.10;;
29092;SDS011;16167;48.768;14.984;2022-07-19T14:20:00;3.47;;;1.80;;
29092;SDS011;16167;48.768;14.984;2022-07-19T14:22:28;3.33;;;1.92;;
29092;SDS011;16167;48.768;14.984;2022-07-19T14:24:57;2.35;;;1.80;;
29092;SDS011;16167;48.768;14.984;2022-07-19T14:27:26;2.75;;;2.00;;
29092;SDS011;16167;48.768;14.984;2022-07-19T14:29:54;2.13;;;2.00;;
29092;SDS011;16167;48.768;14.984;2022-07-19T14:32:24;3.95;;;1.90;;
29092;SDS011;16167;48.768;14.984;2022-07-19T14:34:52;3.70;;;2.17;;
29092;SDS011;16167;48.768;14.984;2022-07-19T14:37:21;2.08;;;1.80;;
29092;SDS011;16167;48.768;14.984;2022-07-19T14:39:54;5.22;;;1.65;;
29092;SDS011;16167;48.768;14.984;2022-07-19T14:42:23;5.75;;;2.15;;
29092;SDS011;16167;48.768;14.984;2022-07-19T14:44:51;3.15;;;2.00;;
29092;SDS011;16167;48.768;14.984;2022-07-19T14:47:19;5.57;;;2.10;;
29092;SDS011;16167;48.768;14.984;2022-07-19T14:49:48;2.35;;;1.80;;
29092;SDS011;16167;48.768;14.984;2022-07-19T14:52:16;2.58;;;2.30;;
29092;SDS011;16167;48.768;14.984;2022-07-19T14:54:45;2.45;;;2.08;;
29092;SDS011;16167;48.768;14.984;2022-07-19T14:57:13;6.15;;;2.60;;
29092;SDS011;16167;48.768;14.984;2022-07-19T14:59:41;2.67;;;1.98;;
29092;SDS011;16167;48.768;14.984;2022-07-19T15:02:15;3.33;;;2.47;;
29092;SDS011;16167;48.768;14.984;2022-07-19T15:04:43;3.30;;;2.15;;
29092;SDS011;16167;48.768;14.984;2022-07-19T15:09:41;4.00;;;2.00;;
29092;SDS011;16167;48.768;14.984;2022-07-19T15:12:09;5.00;;;2.55;;
29092;SDS011;16167;48.768;14.984;2022-07-19T15:14:42;4.10;;;2.00;;
29092;SDS011;16167;48.768;14.984;2022-07-19T15:17:10;3.60;;;2.17;;
29092;SDS011;16167;48.768;14.984;2022-07-19T15:19:38;2.47;;;2.10;;
29092;SDS011;16167;48.768;14.984;2022-07-19T15:22:07;3.50;;;2.00;;
29092;SDS011;16167;48.768;14.984;2022-07-19T15:24:36;5.45;;;2.33;;
29092;SDS011;16167;48.768;14.984;2022-07-19T15:27:04;2.60;;;2.40;;
29092;SDS011;16167;48.768;14.984;2022-07-19T15:29:32;6.78;;;2.17;;
29092;SDS011;16167;48.768;14.984;2022-07-19T15:32:00;3.38;;;2.08;;
29092;SDS011;16167;48.768;14.984;2022-07-19T15:36:57;7.03;;;2.03;;
29092;SDS011;16167;48.768;14.984;2022-07-19T15:39:25;3.75;;;1.90;;
29092;SDS011;16167;48.768;14.984;2022-07-19T15:41:54;3.03;;;2.17;;